»·PEaware :: N442WF KSMN-KBOI

N442WF :: KSMN-KBOI

FLIGHT INFORMATION

Flight Status: Arrived
Operator: Privately registered:
United States
More flights under this callsign
Pilot: Brandon F. (14792)
Aircraft: BEECH AIRCRAFT BEECH AIRLINER
(B190)
More flights by this aircraft type
Origin: KSMN Lemhi Co
United States
Destination: KBOI Boise Air Terminal/Gowen
United States
More flights between these airports :: More routes between these airports
Route: +AHEHU3 FIPFE LKT V113 BOI KBOI
File this flight plan on PilotEdge
Remarks:
Altitude:
(Current/Filed)
18,000ft
Speed:
(Current/Filed)
280kts
Departed: 04-Mar-18 12:52 PM
Arrived: 04-Mar-18 02:02 PM
Distance/Time
Traveled:
137nm/1:10
Distance/Time
To Go:
Arrived

Flight Plot

Page will automatically refresh every two minutes.

Flight plan parsing failed; only flown route is shown


Map Options




Map Legend


Flown Route
Filed Route
Departure Airport
Arrival Airport
Navaid (VOR, NDB)
Fix

Horizontal Profiles

Position Reports

Time Latitude Longitude Heading Altitude Ground
Speed
04-Mar-18 12:42 45.115188 -113.885764 0 4048ft 0kts
04-Mar-18 12:43 45.115188 -113.885764 0 4048ft 0kts
04-Mar-18 12:44 45.115188 -113.885764 0 4048ft 0kts
04-Mar-18 12:45 45.115188 -113.885764 0 4048ft 0kts
04-Mar-18 12:46 45.115188 -113.885764 0 4048ft 0kts
04-Mar-18 12:47 45.115188 -113.885764 0 4048ft 0kts
04-Mar-18 12:48 45.115188 -113.885764 0 4048ft 0kts
04-Mar-18 12:49 45.115188 -113.885764 0 4048ft 0kts
04-Mar-18 12:50 45.115188 -113.885764 0 4048ft 0kts
04-Mar-18 12:51 45.115188 -113.885764 0 4048ft 0kts
04-Mar-18 12:52 45.115188 -113.885764 0 4048ft 0kts
04-Mar-18 12:53 45.115188 -113.885764 0 4048ft 0kts
04-Mar-18 12:54 45.115206 -113.885764 359 4048ft 0kts
04-Mar-18 12:55 45.116089 -113.885755 7 4048ft 4kts
04-Mar-18 12:56 45.116810 -113.885175 56 4048ft 2kts
04-Mar-18 12:57 45.116931 -113.884092 88 4048ft 4kts
04-Mar-18 12:58 45.116919 -113.882718 37 4048ft 1kts
04-Mar-18 12:59 45.142042 -113.877003 8 4679ft 128kts
04-Mar-18 13:00 45.168025 -113.876740 357 5725ft 134kts
04-Mar-18 13:01 45.195612 -113.882280 354 7078ft 126kts
04-Mar-18 13:02 45.216612 -113.884133 355 7903ft 149kts
04-Mar-18 13:03 45.245548 -113.884887 4 9180ft 161kts
04-Mar-18 13:04 45.279207 -113.876952 8 10272ft 170kts
04-Mar-18 13:05 45.311201 -113.868360 8 11230ft 171kts
04-Mar-18 13:06 45.358072 -113.855182 8 12416ft 174kts
04-Mar-18 13:07 45.406312 -113.841409 359 13480ft 178kts
04-Mar-18 13:08 45.406689 -113.894059 231 14331ft 196kts
04-Mar-18 13:09 45.394287 -113.965232 268 15309ft 187kts
04-Mar-18 13:10 45.391667 -114.004202 269 15814ft 188kts
04-Mar-18 13:11 45.381906 -114.076003 220 16653ft 203kts
04-Mar-18 13:12 45.338547 -114.082905 184 17235ft 214kts
04-Mar-18 13:13 45.308472 -114.083070 184 17612ft 215kts
04-Mar-18 13:14 45.277097 -114.083136 184 18144ft 216kts
04-Mar-18 13:15 45.245996 -114.083164 184 18687ft 217kts
04-Mar-18 13:16 45.215479 -114.083208 184 19030ft 225kts
04-Mar-18 13:17 45.183975 -114.083271 184 19050ft 242kts
04-Mar-18 13:18 45.140238 -114.083283 183 19048ft 257kts
04-Mar-18 13:19 45.067409 -114.083268 183 19045ft 267kts
04-Mar-18 13:20 45.002139 -114.114134 228 19051ft 256kts
04-Mar-18 13:21 44.952578 -114.186349 229 19047ft 258kts
04-Mar-18 13:22 44.902972 -114.259765 229 19046ft 259kts
04-Mar-18 13:23 44.853160 -114.333407 229 19046ft 260kts
04-Mar-18 13:24 44.803496 -114.406646 229 19046ft 260kts
04-Mar-18 13:25 44.753557 -114.480086 229 19046ft 260kts
04-Mar-18 13:26 44.703641 -114.553333 229 19046ft 260kts
04-Mar-18 13:27 44.653613 -114.626557 229 19046ft 260kts
04-Mar-18 13:28 44.603542 -114.699658 229 19046ft 260kts
04-Mar-18 13:29 44.553616 -114.772313 229 19045ft 260kts
04-Mar-18 13:30 44.503272 -114.845398 229 19045ft 260kts
04-Mar-18 13:31 44.453198 -114.917892 229 19045ft 260kts
04-Mar-18 13:32 44.403425 -114.989783 229 19043ft 260kts
04-Mar-18 13:33 44.353040 -115.062380 229 19043ft 260kts
04-Mar-18 13:34 44.303215 -115.134309 229 19046ft 260kts
04-Mar-18 13:35 44.252836 -115.206945 229 19046ft 261kts
04-Mar-18 13:36 44.202412 -115.279068 229 19045ft 261kts
04-Mar-18 13:37 44.151300 -115.351966 228 18725ft 272kts
04-Mar-18 13:38 44.103439 -115.419999 228 18117ft 281kts
04-Mar-18 13:39 44.067973 -115.470264 229 17672ft 284kts
04-Mar-18 13:40 44.030707 -115.523074 229 17206ft 286kts
04-Mar-18 13:41 43.998310 -115.568870 229 17001ft 281kts
04-Mar-18 13:42 43.965410 -115.612810 213 16966ft 279kts
04-Mar-18 13:43 43.923430 -115.626256 192 16519ft 288kts
04-Mar-18 13:44 43.880263 -115.635959 192 15846ft 280kts
04-Mar-18 13:45 43.840499 -115.644693 192 15067ft 264kts
04-Mar-18 13:46 43.799045 -115.653639 192 14175ft 253kts
04-Mar-18 13:47 43.762263 -115.661505 192 13357ft 244kts
04-Mar-18 13:48 43.725603 -115.669264 192 12478ft 241kts
04-Mar-18 13:49 43.689520 -115.676944 192 11552ft 241kts
04-Mar-18 13:50 43.658963 -115.683604 192 10769ft 241kts
04-Mar-18 13:51 43.630398 -115.689931 192 10036ft 241kts
04-Mar-18 13:52 43.602070 -115.696293 192 9310ft 241kts
04-Mar-18 13:53 43.573614 -115.702678 192 8994ft 222kts
04-Mar-18 13:54 43.543487 -115.709210 192 8978ft 197kts
04-Mar-18 13:55 43.510385 -115.716221 192 8783ft 210kts
04-Mar-18 13:56 43.475750 -115.723642 193 8192ft 211kts
04-Mar-18 13:57 43.456011 -115.765236 263 7982ft 169kts
04-Mar-18 13:58 43.449072 -115.814609 263 7986ft 171kts
04-Mar-18 13:59 43.443583 -115.854051 265 7985ft 171kts
04-Mar-18 14:00 43.455245 -115.902402 295 7530ft 174kts
04-Mar-18 14:01 43.463289 -115.925835 299 7144ft 176kts
04-Mar-18 14:02 43.473011 -115.953514 296 6401ft 167kts
04-Mar-18 14:03 43.483515 -115.983446 299 6369ft 157kts
04-Mar-18 14:04 43.498939 -116.028884 298 5360ft 166kts
04-Mar-18 14:05 43.515256 -116.076416 298 4585ft 156kts
04-Mar-18 14:06 43.532013 -116.125169 299 4190ft 126kts
04-Mar-18 14:07 43.546220 -116.167113 295 3654ft 112kts
04-Mar-18 14:08 43.558199 -116.201842 297 2932ft 95kts
04-Mar-18 14:09 43.562195 -116.211430 18 2876ft 8kts
04-Mar-18 14:10 43.562951 -116.212101 296 2876ft 9kts
04-Mar-18 14:11 43.564747 -116.215387 300 2876ft 9kts
04-Mar-18 14:12 43.566559 -116.216071 103 2876ft 10kts
04-Mar-18 14:13 43.566206 -116.215738 183 2876ft 0kts

Navigation Log

Ident Type
Flight plan parsing failed, navigation log unavailable